sensor_id;sensor_type;location;lat;lon;timestamp;P1;durP1;ratioP1;P2;durP2;ratioP2
7511;SDS011;9999;48.780;9.146;2023-04-15T00:00:46;1.50;;;1.40;;
7511;SDS011;9999;48.780;9.146;2023-04-15T00:03:14;4.30;;;1.67;;
7511;SDS011;9999;48.780;9.146;2023-04-15T00:05:41;3.80;;;1.40;;
7511;SDS011;9999;48.780;9.146;2023-04-15T00:08:08;1.90;;;1.37;;
7511;SDS011;9999;48.780;9.146;2023-04-15T00:10:35;2.50;;;1.33;;
7511;SDS011;9999;48.780;9.146;2023-04-15T00:13:01;4.47;;;1.60;;
7511;SDS011;9999;48.780;9.146;2023-04-15T00:15:30;2.90;;;1.43;;
7511;SDS011;9999;48.780;9.146;2023-04-15T00:17:56;2.97;;;1.53;;
7511;SDS011;9999;48.780;9.146;2023-04-15T00:20:23;3.47;;;1.77;;
7511;SDS011;9999;48.780;9.146;2023-04-15T00:22:50;3.40;;;1.10;;
7511;SDS011;9999;48.780;9.146;2023-04-15T00:25:17;1.80;;;1.00;;
7511;SDS011;9999;48.780;9.146;2023-04-15T00:27:44;1.53;;;1.43;;
7511;SDS011;9999;48.780;9.146;2023-04-15T00:30:13;0.80;;;0.80;;
7511;SDS011;9999;48.780;9.146;2023-04-15T00:32:42;1.30;;;1.20;;
7511;SDS011;9999;48.780;9.146;2023-04-15T00:35:10;1.70;;;1.07;;
7511;SDS011;9999;48.780;9.146;2023-04-15T00:37:36;1.33;;;1.23;;
7511;SDS011;9999;48.780;9.146;2023-04-15T00:40:04;3.13;;;1.70;;
7511;SDS011;9999;48.780;9.146;2023-04-15T00:42:33;2.03;;;1.90;;
7511;SDS011;9999;48.780;9.146;2023-04-15T00:45:01;8.43;;;2.30;;
7511;SDS011;9999;48.780;9.146;2023-04-15T00:47:28;2.73;;;2.13;;
7511;SDS011;9999;48.780;9.146;2023-04-15T00:49:56;2.33;;;1.70;;
7511;SDS011;9999;48.780;9.146;2023-04-15T00:52:23;2.60;;;2.17;;
7511;SDS011;9999;48.780;9.146;2023-04-15T00:54:51;4.33;;;2.17;;
7511;SDS011;9999;48.780;9.146;2023-04-15T00:57:19;3.77;;;2.40;;
7511;SDS011;9999;48.780;9.146;2023-04-15T00:59:47;3.23;;;1.73;;
7511;SDS011;9999;48.780;9.146;2023-04-15T01:02:14;4.37;;;2.83;;
7511;SDS011;9999;48.780;9.146;2023-04-15T01:04:41;5.07;;;2.80;;
7511;SDS011;9999;48.780;9.146;2023-04-15T01:07:11;2.57;;;2.17;;
7511;SDS011;9999;48.780;9.146;2023-04-15T01:09:38;2.17;;;1.97;;
7511;SDS011;9999;48.780;9.146;2023-04-15T01:12:08;6.07;;;2.47;;
7511;SDS011;9999;48.780;9.146;2023-04-15T01:14:39;1.97;;;1.70;;
7511;SDS011;9999;48.780;9.146;2023-04-15T01:17:07;4.93;;;2.67;;
7511;SDS011;9999;48.780;9.146;2023-04-15T01:19:34;5.53;;;2.50;;
7511;SDS011;9999;48.780;9.146;2023-04-15T01:22:02;3.30;;;1.93;;
7511;SDS011;9999;48.780;9.146;2023-04-15T01:24:31;3.43;;;1.60;;
7511;SDS011;9999;48.780;9.146;2023-04-15T01:26:59;3.63;;;1.90;;
7511;SDS011;9999;48.780;9.146;2023-04-15T01:29:26;1.73;;;1.53;;
7511;SDS011;9999;48.780;9.146;2023-04-15T01:31:53;1.77;;;1.67;;
7511;SDS011;9999;48.780;9.146;2023-04-15T01:34:24;2.00;;;1.47;;
7511;SDS011;9999;48.780;9.146;2023-04-15T01:36:52;2.33;;;2.00;;
7511;SDS011;9999;48.780;9.146;2023-04-15T01:39:20;1.80;;;1.60;;
7511;SDS011;9999;48.780;9.146;2023-04-15T01:41:47;3.57;;;1.93;;
7511;SDS011;9999;48.780;9.146;2023-04-15T01:44:16;1.80;;;1.63;;
7511;SDS011;9999;48.780;9.146;2023-04-15T01:46:43;2.40;;;1.43;;
7511;SDS011;9999;48.780;9.146;2023-04-15T01:49:09;2.40;;;1.57;;
7511;SDS011;9999;48.780;9.146;2023-04-15T01:51:36;3.70;;;2.10;;
7511;SDS011;9999;48.780;9.146;2023-04-15T01:54:04;3.97;;;1.57;;
7511;SDS011;9999;48.780;9.146;2023-04-15T01:56:31;1.77;;;1.67;;
7511;SDS011;9999;48.780;9.146;2023-04-15T01:58:59;2.47;;;1.83;;
7511;SDS011;9999;48.780;9.146;2023-04-15T02:01:28;5.03;;;2.20;;
7511;SDS011;9999;48.780;9.146;2023-04-15T02:03:57;2.40;;;2.10;;
7511;SDS011;9999;48.780;9.146;2023-04-15T02:06:25;4.73;;;1.67;;
7511;SDS011;9999;48.780;9.146;2023-04-15T02:08:53;2.33;;;1.80;;
7511;SDS011;9999;48.780;9.146;2023-04-15T02:11:20;2.50;;;2.30;;
7511;SDS011;9999;48.780;9.146;2023-04-15T02:13:48;5.13;;;2.03;;
7511;SDS011;9999;48.780;9.146;2023-04-15T02:16:15;3.53;;;2.30;;
7511;SDS011;9999;48.780;9.146;2023-04-15T02:18:44;2.10;;;1.90;;
7511;SDS011;9999;48.780;9.146;2023-04-15T02:21:11;2.37;;;2.00;;
7511;SDS011;9999;48.780;9.146;2023-04-15T02:23:38;4.37;;;2.17;;
7511;SDS011;9999;48.780;9.146;2023-04-15T02:26:05;3.27;;;2.30;;
7511;SDS011;9999;48.780;9.146;2023-04-15T02:28:32;2.33;;;1.67;;
7511;SDS011;9999;48.780;9.146;2023-04-15T02:30:58;2.80;;;1.93;;
7511;SDS011;9999;48.780;9.146;2023-04-15T02:33:29;2.87;;;1.90;;
7511;SDS011;9999;48.780;9.146;2023-04-15T02:35:59;2.80;;;1.67;;
7511;SDS011;9999;48.780;9.146;2023-04-15T02:38:26;1.70;;;1.57;;
7511;SDS011;9999;48.780;9.146;2023-04-15T02:40:53;3.83;;;2.13;;
7511;SDS011;9999;48.780;9.146;2023-04-15T02:43:21;2.93;;;1.47;;
7511;SDS011;9999;48.780;9.146;2023-04-15T02:45:49;5.80;;;2.60;;
7511;SDS011;9999;48.780;9.146;2023-04-15T02:48:16;3.40;;;1.60;;
7511;SDS011;9999;48.780;9.146;2023-04-15T02:50:44;2.60;;;1.60;;
7511;SDS011;9999;48.780;9.146;2023-04-15T02:53:14;2.70;;;2.07;;
7511;SDS011;9999;48.780;9.146;2023-04-15T02:55:44;3.10;;;1.63;;
7511;SDS011;9999;48.780;9.146;2023-04-15T02:58:11;2.90;;;1.40;;
7511;SDS011;9999;48.780;9.146;2023-04-15T03:00:38;4.57;;;2.13;;
7511;SDS011;9999;48.780;9.146;2023-04-15T03:03:04;1.53;;;1.30;;
7511;SDS011;9999;48.780;9.146;2023-04-15T03:05:31;1.87;;;1.23;;
7511;SDS011;9999;48.780;9.146;2023-04-15T03:07:59;5.77;;;1.20;;
7511;SDS011;9999;48.780;9.146;2023-04-15T03:10:28;4.13;;;1.83;;
7511;SDS011;9999;48.780;9.146;2023-04-15T03:12:55;1.57;;;1.43;;
7511;SDS011;9999;48.780;9.146;2023-04-15T03:15:22;2.13;;;1.60;;
7511;SDS011;9999;48.780;9.146;2023-04-15T03:17:51;1.10;;;1.10;;
7511;SDS011;9999;48.780;9.146;2023-04-15T03:20:18;2.30;;;1.10;;
7511;SDS011;9999;48.780;9.146;2023-04-15T03:22:46;1.40;;;1.30;;
7511;SDS011;9999;48.780;9.146;2023-04-15T03:25:13;1.40;;;1.30;;
7511;SDS011;9999;48.780;9.146;2023-04-15T03:27:42;1.43;;;1.33;;
7511;SDS011;9999;48.780;9.146;2023-04-15T03:30:10;1.30;;;1.20;;
7511;SDS011;9999;48.780;9.146;2023-04-15T03:32:39;2.67;;;1.37;;
7511;SDS011;9999;48.780;9.146;2023-04-15T03:35:07;7.87;;;2.23;;
7511;SDS011;9999;48.780;9.146;2023-04-15T03:37:34;2.50;;;1.50;;
7511;SDS011;9999;48.780;9.146;2023-04-15T03:40:01;2.90;;;1.70;;
7511;SDS011;9999;48.780;9.146;2023-04-15T03:42:28;2.87;;;2.03;;
7511;SDS011;9999;48.780;9.146;2023-04-15T03:44:56;2.10;;;1.97;;
7511;SDS011;9999;48.780;9.146;2023-04-15T03:47:23;4.43;;;2.53;;
7511;SDS011;9999;48.780;9.146;2023-04-15T03:49:49;2.47;;;2.07;;
7511;SDS011;9999;48.780;9.146;2023-04-15T03:52:16;1.87;;;1.53;;
7511;SDS011;9999;48.780;9.146;2023-04-15T03:54:43;6.23;;;2.20;;
7511;SDS011;9999;48.780;9.146;2023-04-15T03:57:10;1.87;;;1.57;;
7511;SDS011;9999;48.780;9.146;2023-04-15T03:59:37;1.70;;;1.60;;
7511;SDS011;9999;48.780;9.146;2023-04-15T04:02:05;4.40;;;1.93;;
7511;SDS011;9999;48.780;9.146;2023-04-15T04:04:32;6.57;;;2.50;;
7511;SDS011;9999;48.780;9.146;2023-04-15T04:06:59;2.40;;;2.03;;
7511;SDS011;9999;48.780;9.146;2023-04-15T04:09:25;2.10;;;1.90;;
7511;SDS011;9999;48.780;9.146;2023-04-15T04:11:52;3.03;;;2.43;;
7511;SDS011;9999;48.780;9.146;2023-04-15T04:14:20;3.53;;;2.43;;
7511;SDS011;9999;48.780;9.146;2023-04-15T04:16:53;3.73;;;1.90;;
7511;SDS011;9999;48.780;9.146;2023-04-15T04:19:21;2.07;;;1.70;;
7511;SDS011;9999;48.780;9.146;2023-04-15T04:21:48;3.20;;;1.90;;
7511;SDS011;9999;48.780;9.146;2023-04-15T04:24:14;1.93;;;1.60;;
7511;SDS011;9999;48.780;9.146;2023-04-15T04:26:41;4.87;;;2.27;;
7511;SDS011;9999;48.780;9.146;2023-04-15T04:29:08;2.77;;;2.57;;
7511;SDS011;9999;48.780;9.146;2023-04-15T04:31:35;2.53;;;1.70;;
7511;SDS011;9999;48.780;9.146;2023-04-15T04:34:02;2.43;;;2.13;;
7511;SDS011;9999;48.780;9.146;2023-04-15T04:36:30;2.30;;;2.13;;
7511;SDS011;9999;48.780;9.146;2023-04-15T04:38:57;2.63;;;2.30;;
7511;SDS011;9999;48.780;9.146;2023-04-15T04:41:24;7.03;;;3.20;;
7511;SDS011;9999;48.780;9.146;2023-04-15T04:43:50;8.87;;;2.70;;
7511;SDS011;9999;48.780;9.146;2023-04-15T04:46:17;2.53;;;2.13;;
7511;SDS011;9999;48.780;9.146;2023-04-15T04:48:44;3.33;;;1.97;;
7511;SDS011;9999;48.780;9.146;2023-04-15T04:51:11;3.10;;;2.80;;
7511;SDS011;9999;48.780;9.146;2023-04-15T04:53:39;3.00;;;2.47;;
7511;SDS011;9999;48.780;9.146;2023-04-15T04:56:07;4.13;;;2.47;;
7511;SDS011;9999;48.780;9.146;2023-04-15T04:58:33;4.60;;;2.53;;
7511;SDS011;9999;48.780;9.146;2023-04-15T05:01:00;4.87;;;2.10;;
7511;SDS011;9999;48.780;9.146;2023-04-15T05:03:28;4.83;;;2.03;;
7511;SDS011;9999;48.780;9.146;2023-04-15T05:05:55;4.00;;;2.70;;
7511;SDS011;9999;48.780;9.146;2023-04-15T05:08:22;6.23;;;2.47;;
7511;SDS011;9999;48.780;9.146;2023-04-15T05:10:50;3.23;;;2.07;;
7511;SDS011;9999;48.780;9.146;2023-04-15T05:13:17;2.23;;;2.03;;
7511;SDS011;9999;48.780;9.146;2023-04-15T05:15:45;3.47;;;2.40;;
7511;SDS011;9999;48.780;9.146;2023-04-15T05:18:12;2.20;;;2.00;;
7511;SDS011;9999;48.780;9.146;2023-04-15T05:20:39;7.20;;;2.27;;
7511;SDS011;9999;48.780;9.146;2023-04-15T05:23:05;3.13;;;1.80;;
7511;SDS011;9999;48.780;9.146;2023-04-15T05:25:32;5.07;;;2.33;;
7511;SDS011;9999;48.780;9.146;2023-04-15T05:28:00;4.13;;;2.00;;
7511;SDS011;9999;48.780;9.146;2023-04-15T05:30:27;4.43;;;2.57;;
7511;SDS011;9999;48.780;9.146;2023-04-15T05:32:54;2.47;;;1.80;;
7511;SDS011;9999;48.780;9.146;2023-04-15T05:35:21;2.10;;;2.00;;
7511;SDS011;9999;48.780;9.146;2023-04-15T05:37:48;4.00;;;1.60;;
7511;SDS011;9999;48.780;9.146;2023-04-15T05:40:15;1.93;;;1.60;;
7511;SDS011;9999;48.780;9.146;2023-04-15T05:42:42;2.70;;;2.20;;
7511;SDS011;9999;48.780;9.146;2023-04-15T05:45:10;3.13;;;2.33;;
7511;SDS011;9999;48.780;9.146;2023-04-15T05:47:38;1.90;;;1.80;;
7511;SDS011;9999;48.780;9.146;2023-04-15T05:50:05;4.03;;;2.37;;
7511;SDS011;9999;48.780;9.146;2023-04-15T05:52:32;2.93;;;1.90;;
7511;SDS011;9999;48.780;9.146;2023-04-15T05:54:59;3.03;;;2.47;;
7511;SDS011;9999;48.780;9.146;2023-04-15T05:57:25;3.90;;;2.23;;
7511;SDS011;9999;48.780;9.146;2023-04-15T05:59:52;4.03;;;2.30;;
7511;SDS011;9999;48.780;9.146;2023-04-15T06:02:22;6.07;;;2.77;;
7511;SDS011;9999;48.780;9.146;2023-04-15T06:04:49;3.00;;;2.30;;
7511;SDS011;9999;48.780;9.146;2023-04-15T06:07:16;2.77;;;1.43;;
7511;SDS011;9999;48.780;9.146;2023-04-15T06:09:43;3.57;;;2.93;;
7511;SDS011;9999;48.780;9.146;2023-04-15T06:12:09;3.47;;;2.13;;
7511;SDS011;9999;48.780;9.146;2023-04-15T06:14:37;3.17;;;2.57;;
7511;SDS011;9999;48.780;9.146;2023-04-15T06:17:04;2.53;;;2.10;;
7511;SDS011;9999;48.780;9.146;2023-04-15T06:19:33;6.50;;;2.33;;
7511;SDS011;9999;48.780;9.146;2023-04-15T06:22:00;3.00;;;2.70;;
7511;SDS011;9999;48.780;9.146;2023-04-15T06:24:27;5.47;;;2.30;;
7511;SDS011;9999;48.780;9.146;2023-04-15T06:26:54;3.83;;;2.73;;
7511;SDS011;9999;48.780;9.146;2023-04-15T06:29:21;3.77;;;2.90;;
7511;SDS011;9999;48.780;9.146;2023-04-15T06:31:48;4.83;;;2.07;;
7511;SDS011;9999;48.780;9.146;2023-04-15T06:34:15;4.43;;;2.27;;
7511;SDS011;9999;48.780;9.146;2023-04-15T06:36:43;3.83;;;2.67;;
7511;SDS011;9999;48.780;9.146;2023-04-15T06:39:10;3.30;;;2.40;;
7511;SDS011;9999;48.780;9.146;2023-04-15T06:41:36;2.40;;;2.10;;
7511;SDS011;9999;48.780;9.146;2023-04-15T06:44:03;5.40;;;2.20;;
7511;SDS011;9999;48.780;9.146;2023-04-15T06:46:30;2.43;;;2.23;;
7511;SDS011;9999;48.780;9.146;2023-04-15T06:48:57;4.33;;;2.50;;
7511;SDS011;9999;48.780;9.146;2023-04-15T06:51:23;7.63;;;2.40;;
7511;SDS011;9999;48.780;9.146;2023-04-15T06:53:52;3.20;;;2.07;;
7511;SDS011;9999;48.780;9.146;2023-04-15T06:56:19;3.53;;;2.50;;
7511;SDS011;9999;48.780;9.146;2023-04-15T06:58:46;3.73;;;1.90;;
7511;SDS011;9999;48.780;9.146;2023-04-15T07:01:12;5.70;;;3.27;;
7511;SDS011;9999;48.780;9.146;2023-04-15T07:03:39;2.47;;;2.27;;
7511;SDS011;9999;48.780;9.146;2023-04-15T07:06:06;6.00;;;2.87;;
7511;SDS011;9999;48.780;9.146;2023-04-15T07:08:34;6.33;;;3.60;;
7511;SDS011;9999;48.780;9.146;2023-04-15T07:11:02;3.60;;;3.00;;
7511;SDS011;9999;48.780;9.146;2023-04-15T07:13:30;3.57;;;2.60;;
7511;SDS011;9999;48.780;9.146;2023-04-15T07:15:57;6.47;;;2.70;;
7511;SDS011;9999;48.780;9.146;2023-04-15T07:18:24;2.97;;;2.73;;
7511;SDS011;9999;48.780;9.146;2023-04-15T07:20:51;4.60;;;2.90;;
7511;SDS011;9999;48.780;9.146;2023-04-15T07:23:18;3.95;;;3.17;;
7511;SDS011;9999;48.780;9.146;2023-04-15T07:25:45;4.68;;;3.38;;
7511;SDS011;9999;48.780;9.146;2023-04-15T07:28:13;5.30;;;3.03;;
7511;SDS011;9999;48.780;9.146;2023-04-15T07:30:40;4.43;;;2.53;;
7511;SDS011;9999;48.780;9.146;2023-04-15T07:33:07;4.60;;;3.05;;
7511;SDS011;9999;48.780;9.146;2023-04-15T07:35:34;5.65;;;2.85;;
7511;SDS011;9999;48.780;9.146;2023-04-15T07:38:00;6.10;;;3.13;;
7511;SDS011;9999;48.780;9.146;2023-04-15T07:40:27;3.33;;;2.40;;
7511;SDS011;9999;48.780;9.146;2023-04-15T07:42:54;4.47;;;2.90;;
7511;SDS011;9999;48.780;9.146;2023-04-15T07:45:23;5.07;;;1.98;;
7511;SDS011;9999;48.780;9.146;2023-04-15T07:47:50;4.47;;;2.72;;
7511;SDS011;9999;48.780;9.146;2023-04-15T07:50:17;7.53;;;3.00;;
7511;SDS011;9999;48.780;9.146;2023-04-15T07:52:44;3.67;;;3.00;;
7511;SDS011;9999;48.780;9.146;2023-04-15T07:55:11;4.00;;;2.80;;
7511;SDS011;9999;48.780;9.146;2023-04-15T07:57:37;7.65;;;2.78;;
7511;SDS011;9999;48.780;9.146;2023-04-15T08:00:05;4.03;;;2.20;;
7511;SDS011;9999;48.780;9.146;2023-04-15T08:02:43;6.13;;;2.97;;
7511;SDS011;9999;48.780;9.146;2023-04-15T08:05:12;4.65;;;2.47;;
7511;SDS011;9999;48.780;9.146;2023-04-15T08:07:39;3.00;;;2.67;;
7511;SDS011;9999;48.780;9.146;2023-04-15T08:10:06;2.78;;;2.47;;
7511;SDS011;9999;48.780;9.146;2023-04-15T08:12:34;4.22;;;2.63;;
7511;SDS011;9999;48.780;9.146;2023-04-15T08:15:01;1.88;;;1.77;;
7511;SDS011;9999;48.780;9.146;2023-04-15T08:17:27;3.92;;;2.80;;
7511;SDS011;9999;48.780;9.146;2023-04-15T08:19:56;2.55;;;1.80;;
7511;SDS011;9999;48.780;9.146;2023-04-15T08:22:23;2.75;;;2.42;;
7511;SDS011;9999;48.780;9.146;2023-04-15T08:24:49;4.10;;;2.97;;
7511;SDS011;9999;48.780;9.146;2023-04-15T08:27:16;1.88;;;1.77;;
7511;SDS011;9999;48.780;9.146;2023-04-15T08:29:43;4.05;;;2.25;;
7511;SDS011;9999;48.780;9.146;2023-04-15T08:32:11;3.05;;;1.83;;
7511;SDS011;9999;48.780;9.146;2023-04-15T08:34:37;3.90;;;2.60;;
7511;SDS011;9999;48.780;9.146;2023-04-15T08:37:06;7.43;;;2.80;;
7511;SDS011;9999;48.780;9.146;2023-04-15T08:39:32;4.38;;;2.30;;
7511;SDS011;9999;48.780;9.146;2023-04-15T08:41:59;3.05;;;2.22;;
7511;SDS011;9999;48.780;9.146;2023-04-15T08:44:28;2.38;;;1.65;;
7511;SDS011;9999;48.780;9.146;2023-04-15T08:46:56;3.25;;;2.72;;
7511;SDS011;9999;48.780;9.146;2023-04-15T08:49:26;5.57;;;2.08;;
7511;SDS011;9999;48.780;9.146;2023-04-15T08:51:54;5.25;;;2.17;;
7511;SDS011;9999;48.780;9.146;2023-04-15T08:54:25;4.88;;;2.75;;
7511;SDS011;9999;48.780;9.146;2023-04-15T08:56:53;1.70;;;1.40;;
7511;SDS011;9999;48.780;9.146;2023-04-15T08:59:20;2.65;;;0.82;;
7511;SDS011;9999;48.780;9.146;2023-04-15T09:01:47;2.45;;;1.35;;
7511;SDS011;9999;48.780;9.146;2023-04-15T09:04:15;2.63;;;1.27;;
7511;SDS011;9999;48.780;9.146;2023-04-15T09:06:42;1.23;;;1.10;;
7511;SDS011;9999;48.780;9.146;2023-04-15T09:09:10;2.83;;;1.30;;
7511;SDS011;9999;48.780;9.146;2023-04-15T09:11:39;2.03;;;1.42;;
7511;SDS011;9999;48.780;9.146;2023-04-15T09:14:06;2.85;;;1.42;;
7511;SDS011;9999;48.780;9.146;2023-04-15T09:19:21;1.20;;;1.15;;
7511;SDS011;9999;48.780;9.146;2023-04-15T09:21:49;2.90;;;1.67;;
7511;SDS011;9999;48.780;9.146;2023-04-15T09:24:17;1.27;;;1.17;;
7511;SDS011;9999;48.780;9.146;2023-04-15T09:26:45;3.67;;;1.73;;
7511;SDS011;9999;48.780;9.146;2023-04-15T09:29:12;2.40;;;1.27;;
7511;SDS011;9999;48.780;9.146;2023-04-15T09:31:39;5.47;;;1.60;;
7511;SDS011;9999;48.780;9.146;2023-04-15T09:34:07;1.42;;;1.13;;
7511;SDS011;9999;48.780;9.146;2023-04-15T09:36:39;3.33;;;1.60;;
7511;SDS011;9999;48.780;9.146;2023-04-15T09:39:18;3.95;;;1.40;;
7511;SDS011;9999;48.780;9.146;2023-04-15T09:41:47;1.83;;;1.25;;
7511;SDS011;9999;48.780;9.146;2023-04-15T09:44:30;2.30;;;1.67;;
7511;SDS011;9999;48.780;9.146;2023-04-15T09:46:57;1.60;;;1.50;;
7511;SDS011;9999;48.780;9.146;2023-04-15T09:49:24;2.83;;;1.33;;
7511;SDS011;9999;48.780;9.146;2023-04-15T09:51:53;2.47;;;1.73;;
7511;SDS011;9999;48.780;9.146;2023-04-15T09:54:23;2.13;;;1.55;;
7511;SDS011;9999;48.780;9.146;2023-04-15T09:56:51;1.63;;;1.52;;
7511;SDS011;9999;48.780;9.146;2023-04-15T09:59:18;5.70;;;1.75;;
7511;SDS011;9999;48.780;9.146;2023-04-15T10:01:45;1.50;;;1.40;;
7511;SDS011;9999;48.780;9.146;2023-04-15T10:04:12;1.63;;;1.40;;
7511;SDS011;9999;48.780;9.146;2023-04-15T10:06:40;1.45;;;1.35;;
7511;SDS011;9999;48.780;9.146;2023-04-15T10:09:06;3.97;;;1.98;;
7511;SDS011;9999;48.780;9.146;2023-04-15T10:11:33;3.60;;;1.48;;
7511;SDS011;9999;48.780;9.146;2023-04-15T10:14:02;4.50;;;1.48;;
7511;SDS011;9999;48.780;9.146;2023-04-15T10:16:30;2.30;;;1.48;;
7511;SDS011;9999;48.780;9.146;2023-04-15T10:18:59;6.45;;;1.70;;
7511;SDS011;9999;48.780;9.146;2023-04-15T10:21:29;3.33;;;2.15;;
7511;SDS011;9999;48.780;9.146;2023-04-15T10:23:56;1.70;;;1.60;;
7511;SDS011;9999;48.780;9.146;2023-04-15T10:26:23;2.08;;;1.25;;
7511;SDS011;9999;48.780;9.146;2023-04-15T10:28:51;2.10;;;1.90;;
7511;SDS011;9999;48.780;9.146;2023-04-15T10:31:20;4.10;;;1.50;;
7511;SDS011;9999;48.780;9.146;2023-04-15T10:33:47;3.40;;;1.90;;
7511;SDS011;9999;48.780;9.146;2023-04-15T10:36:15;5.32;;;1.60;;
7511;SDS011;9999;48.780;9.146;2023-04-15T10:38:44;2.45;;;2.17;;
7511;SDS011;9999;48.780;9.146;2023-04-15T10:41:15;2.28;;;2.08;;
7511;SDS011;9999;48.780;9.146;2023-04-15T10:43:45;3.15;;;2.13;;
7511;SDS011;9999;48.780;9.146;2023-04-15T10:46:17;3.00;;;1.92;;
7511;SDS011;9999;48.780;9.146;2023-04-15T10:48:46;4.07;;;2.80;;
7511;SDS011;9999;48.780;9.146;2023-04-15T10:51:15;3.90;;;2.00;;
7511;SDS011;9999;48.780;9.146;2023-04-15T10:53:43;1.63;;;1.52;;
7511;SDS011;9999;48.780;9.146;2023-04-15T10:56:09;2.13;;;1.42;;
7511;SDS011;9999;48.780;9.146;2023-04-15T10:58:40;3.15;;;1.67;;
7511;SDS011;9999;48.780;9.146;2023-04-15T11:01:07;1.65;;;1.33;;
7511;SDS011;9999;48.780;9.146;2023-04-15T11:03:37;3.13;;;1.50;;
7511;SDS011;9999;48.780;9.146;2023-04-15T11:06:04;4.20;;;1.70;;
7511;SDS011;9999;48.780;9.146;2023-04-15T11:11:19;2.28;;;1.50;;
7511;SDS011;9999;48.780;9.146;2023-04-15T11:13:46;2.13;;;1.75;;
7511;SDS011;9999;48.780;9.146;2023-04-15T11:16:18;2.28;;;1.80;;
7511;SDS011;9999;48.780;9.146;2023-04-15T11:18:53;2.85;;;1.48;;
7511;SDS011;9999;48.780;9.146;2023-04-15T11:21:23;2.63;;;1.63;;
7511;SDS011;9999;48.780;9.146;2023-04-15T11:23:52;5.38;;;1.40;;
7511;SDS011;9999;48.780;9.146;2023-04-15T11:26:19;3.65;;;1.52;;
7511;SDS011;9999;48.780;9.146;2023-04-15T11:28:56;3.17;;;2.13;;
7511;SDS011;9999;48.780;9.146;2023-04-15T11:31:25;4.03;;;1.95;;
7511;SDS011;9999;48.780;9.146;2023-04-15T11:33:56;3.60;;;2.05;;
7511;SDS011;9999;48.780;9.146;2023-04-15T11:36:25;1.95;;;1.65;;
7511;SDS011;9999;48.780;9.146;2023-04-15T11:38:53;1.38;;;1.27;;
7511;SDS011;9999;48.780;9.146;2023-04-15T11:41:22;4.22;;;1.88;;
7511;SDS011;9999;48.780;9.146;2023-04-15T11:43:52;3.92;;;1.90;;
7511;SDS011;9999;48.780;9.146;2023-04-15T11:46:19;5.25;;;1.65;;
7511;SDS011;9999;48.780;9.146;2023-04-15T11:48:46;3.30;;;1.80;;
7511;SDS011;9999;48.780;9.146;2023-04-15T11:51:15;3.50;;;2.55;;
7511;SDS011;9999;48.780;9.146;2023-04-15T11:53:43;1.90;;;1.70;;
7511;SDS011;9999;48.780;9.146;2023-04-15T11:56:15;2.20;;;1.85;;
7511;SDS011;9999;48.780;9.146;2023-04-15T11:58:43;3.58;;;1.80;;
7511;SDS011;9999;48.780;9.146;2023-04-15T12:01:10;2.63;;;1.98;;
7511;SDS011;9999;48.780;9.146;2023-04-15T12:03:38;1.98;;;1.88;;
7511;SDS011;9999;48.780;9.146;2023-04-15T12:06:07;6.63;;;2.25;;
7511;SDS011;9999;48.780;9.146;2023-04-15T12:08:56;2.08;;;1.88;;
7511;SDS011;9999;48.780;9.146;2023-04-15T12:11:28;5.18;;;2.35;;
7511;SDS011;9999;48.780;9.146;2023-04-15T12:13:57;5.15;;;2.10;;
7511;SDS011;9999;48.780;9.146;2023-04-15T12:16:27;3.65;;;1.90;;
7511;SDS011;9999;48.780;9.146;2023-04-15T12:18:55;4.20;;;2.25;;
7511;SDS011;9999;48.780;9.146;2023-04-15T12:21:24;3.22;;;2.30;;
7511;SDS011;9999;48.780;9.146;2023-04-15T12:23:52;2.25;;;1.52;;
7511;SDS011;9999;48.780;9.146;2023-04-15T12:26:26;2.45;;;1.88;;
7511;SDS011;9999;48.780;9.146;2023-04-15T12:28:54;2.72;;;2.05;;
7511;SDS011;9999;48.780;9.146;2023-04-15T12:31:21;2.85;;;1.67;;
7511;SDS011;9999;48.780;9.146;2023-04-15T12:33:48;2.45;;;1.77;;
7511;SDS011;9999;48.780;9.146;2023-04-15T12:36:15;1.98;;;1.40;;
7511;SDS011;9999;48.780;9.146;2023-04-15T12:38:42;2.03;;;1.83;;
7511;SDS011;9999;48.780;9.146;2023-04-15T12:41:09;5.25;;;1.80;;
7511;SDS011;9999;48.780;9.146;2023-04-15T12:43:37;3.80;;;1.95;;
7511;SDS011;9999;48.780;9.146;2023-04-15T12:46:04;3.35;;;1.98;;
7511;SDS011;9999;48.780;9.146;2023-04-15T12:48:32;4.35;;;1.85;;
7511;SDS011;9999;48.780;9.146;2023-04-15T12:50:59;3.45;;;2.10;;
7511;SDS011;9999;48.780;9.146;2023-04-15T12:53:26;3.92;;;2.10;;
7511;SDS011;9999;48.780;9.146;2023-04-15T12:55:52;1.92;;;1.50;;
7511;SDS011;9999;48.780;9.146;2023-04-15T12:58:20;3.88;;;1.88;;
7511;SDS011;9999;48.780;9.146;2023-04-15T13:00:48;1.58;;;1.45;;
7511;SDS011;9999;48.780;9.146;2023-04-15T13:03:15;2.60;;;2.00;;
7511;SDS011;9999;48.780;9.146;2023-04-15T13:05:42;1.52;;;1.40;;
7511;SDS011;9999;48.780;9.146;2023-04-15T13:08:09;5.13;;;1.60;;
7511;SDS011;9999;48.780;9.146;2023-04-15T13:10:36;1.48;;;1.38;;
7511;SDS011;9999;48.780;9.146;2023-04-15T13:13:03;2.13;;;1.58;;
7511;SDS011;9999;48.780;9.146;2023-04-15T13:15:30;3.22;;;1.80;;
7511;SDS011;9999;48.780;9.146;2023-04-15T13:17:58;1.77;;;1.67;;
7511;SDS011;9999;48.780;9.146;2023-04-15T13:20:25;3.80;;;1.88;;
7511;SDS011;9999;48.780;9.146;2023-04-15T13:22:53;1.20;;;1.20;;
7511;SDS011;9999;48.780;9.146;2023-04-15T13:25:19;1.58;;;1.48;;
7511;SDS011;9999;48.780;9.146;2023-04-15T13:27:46;1.42;;;1.33;;
7511;SDS011;9999;48.780;9.146;2023-04-15T13:30:13;1.52;;;1.20;;
7511;SDS011;9999;48.780;9.146;2023-04-15T13:32:40;1.15;;;1.15;;
7511;SDS011;9999;48.780;9.146;2023-04-15T13:35:08;1.35;;;1.25;;
7511;SDS011;9999;48.780;9.146;2023-04-15T13:37:35;1.75;;;1.60;;
7511;SDS011;9999;48.780;9.146;2023-04-15T13:40:03;1.73;;;1.23;;
7511;SDS011;9999;48.780;9.146;2023-04-15T13:42:32;1.10;;;1.00;;
7511;SDS011;9999;48.780;9.146;2023-04-15T13:44:59;3.30;;;1.10;;
7511;SDS011;9999;48.780;9.146;2023-04-15T13:47:25;1.35;;;1.10;;
7511;SDS011;9999;48.780;9.146;2023-04-15T13:49:52;1.23;;;0.95;;
7511;SDS011;9999;48.780;9.146;2023-04-15T13:52:22;1.40;;;0.90;;
7511;SDS011;9999;48.780;9.146;2023-04-15T13:54:49;1.13;;;0.95;;
7511;SDS011;9999;48.780;9.146;2023-04-15T13:57:16;1.88;;;1.00;;
7511;SDS011;9999;48.780;9.146;2023-04-15T13:59:42;0.98;;;0.88;;
7511;SDS011;9999;48.780;9.146;2023-04-15T14:02:09;1.63;;;1.50;;
7511;SDS011;9999;48.780;9.146;2023-04-15T14:04:36;1.80;;;0.80;;
7511;SDS011;9999;48.780;9.146;2023-04-15T14:07:03;1.48;;;1.10;;
7511;SDS011;9999;48.780;9.146;2023-04-15T14:09:31;1.08;;;0.98;;
7511;SDS011;9999;48.780;9.146;2023-04-15T14:11:58;0.75;;;0.75;;
7511;SDS011;9999;48.780;9.146;2023-04-15T14:14:25;1.08;;;0.98;;
7511;SDS011;9999;48.780;9.146;2023-04-15T14:16:53;0.88;;;0.80;;
7511;SDS011;9999;48.780;9.146;2023-04-15T14:19:21;0.98;;;0.98;;
7511;SDS011;9999;48.780;9.146;2023-04-15T14:21:47;1.88;;;0.70;;
7511;SDS011;9999;48.780;9.146;2023-04-15T14:24:14;0.80;;;0.77;;
7511;SDS011;9999;48.780;9.146;2023-04-15T14:26:42;1.25;;;0.90;;
7511;SDS011;9999;48.780;9.146;2023-04-15T14:29:12;0.90;;;0.90;;
7511;SDS011;9999;48.780;9.146;2023-04-15T14:31:39;1.25;;;0.80;;
7511;SDS011;9999;48.780;9.146;2023-04-15T14:34:06;0.82;;;0.82;;
7511;SDS011;9999;48.780;9.146;2023-04-15T14:36:33;3.05;;;0.70;;
7511;SDS011;9999;48.780;9.146;2023-04-15T14:39:00;1.08;;;0.95;;
7511;SDS011;9999;48.780;9.146;2023-04-15T14:41:26;0.90;;;0.90;;
7511;SDS011;9999;48.780;9.146;2023-04-15T14:43:54;1.75;;;1.23;;
7511;SDS011;9999;48.780;9.146;2023-04-15T14:46:21;0.85;;;0.85;;
7511;SDS011;9999;48.780;9.146;2023-04-15T14:48:48;4.38;;;1.40;;
7511;SDS011;9999;48.780;9.146;2023-04-15T14:51:15;1.10;;;1.00;;
7511;SDS011;9999;48.780;9.146;2023-04-15T14:53:42;0.88;;;0.88;;
7511;SDS011;9999;48.780;9.146;2023-04-15T14:56:09;1.02;;;1.02;;
7511;SDS011;9999;48.780;9.146;2023-04-15T14:58:36;1.13;;;0.95;;
7511;SDS011;9999;48.780;9.146;2023-04-15T15:01:04;0.80;;;0.80;;
7511;SDS011;9999;48.780;9.146;2023-04-15T15:03:31;2.60;;;1.10;;
7511;SDS011;9999;48.780;9.146;2023-04-15T15:05:59;2.05;;;1.00;;
7511;SDS011;9999;48.780;9.146;2023-04-15T15:08:25;1.25;;;1.13;;
7511;SDS011;9999;48.780;9.146;2023-04-15T15:10:52;0.98;;;0.90;;
7511;SDS011;9999;48.780;9.146;2023-04-15T15:13:19;1.10;;;1.05;;
7511;SDS011;9999;48.780;9.146;2023-04-15T15:15:46;3.42;;;1.48;;
7511;SDS011;9999;48.780;9.146;2023-04-15T15:18:15;0.63;;;0.63;;
7511;SDS011;9999;48.780;9.146;2023-04-15T15:20:43;1.95;;;1.52;;
7511;SDS011;9999;48.780;9.146;2023-04-15T15:23:10;1.17;;;1.08;;